createdAt,value
2019-05-17T00:02:08.127Z,10.57
2019-05-17T00:04:37.538Z,11.30
2019-05-17T00:07:07.086Z,11.10
2019-05-17T00:09:37.388Z,11.30
2019-05-17T00:12:07.564Z,9.57
2019-05-17T00:14:37.008Z,11.10
2019-05-17T00:17:07.132Z,12.13
2019-05-17T00:19:37.054Z,10.40
2019-05-17T00:22:07.351Z,10.80
2019-05-17T00:24:37.112Z,11.03
2019-05-17T00:27:06.897Z,11.57
2019-05-17T00:29:37.198Z,11.60
2019-05-17T00:32:06.714Z,11.07
2019-05-17T00:34:37.733Z,12.10
2019-05-17T00:37:07.376Z,10.63
2019-05-17T00:39:36.862Z,9.80
2019-05-17T00:42:07.036Z,13.50
2019-05-17T00:44:36.811Z,10.67
2019-05-17T00:47:06.686Z,11.07
2019-05-17T00:49:37.166Z,13.63
2019-05-17T00:52:07.211Z,12.37
2019-05-17T00:54:36.813Z,11.87
2019-05-17T00:57:07.504Z,11.37
2019-05-17T00:59:37.089Z,11.37
2019-05-17T01:02:07.110Z,10.77
2019-05-17T01:04:37.045Z,12.73
2019-05-17T01:07:07.091Z,12.10
2019-05-17T01:09:36.814Z,13.40
2019-05-17T01:12:07.083Z,13.00
2019-05-17T01:14:37.287Z,11.70
2019-05-17T01:17:07.305Z,12.23
2019-05-17T01:19:36.868Z,13.10
2019-05-17T01:22:07.545Z,11.97
2019-05-17T01:24:37.117Z,11.20
2019-05-17T01:27:06.731Z,12.13
2019-05-17T01:29:36.475Z,10.90
2019-05-17T01:32:06.854Z,11.53
2019-05-17T01:34:37.672Z,11.07
2019-05-17T01:37:07.918Z,11.33
2019-05-17T01:39:37.691Z,12.00
2019-05-17T01:42:07.211Z,11.67
2019-05-17T01:44:36.862Z,12.57
2019-05-17T01:47:07.405Z,10.47
2019-05-17T01:49:36.861Z,11.13
2019-05-17T01:52:07.477Z,10.70
2019-05-17T01:54:37.025Z,10.50
2019-05-17T01:57:07.309Z,11.33
2019-05-17T01:59:37.372Z,10.90
2019-05-17T02:02:10.392Z,11.47
2019-05-17T02:04:39.764Z,10.80
2019-05-17T02:07:09.138Z,10.53
2019-05-17T02:09:41.699Z,11.93
2019-05-17T02:12:09.752Z,9.83
2019-05-17T02:14:39.146Z,11.27
2019-05-17T02:17:08.509Z,9.63
2019-05-17T02:19:37.945Z,10.90
2019-05-17T02:22:07.585Z,12.20
2019-05-17T02:24:37.203Z,12.47
2019-05-17T02:27:06.845Z,10.77
2019-05-17T02:29:36.248Z,11.10
2019-05-17T02:32:05.873Z,11.47
2019-05-17T02:34:35.392Z,11.40
2019-05-17T02:37:04.777Z,10.93
2019-05-17T02:39:51.958Z,10.37
2019-05-17T02:42:05.485Z,10.97
2019-05-17T02:44:34.866Z,11.53
2019-05-17T02:47:04.305Z,9.13
2019-05-17T02:49:33.682Z,9.70
2019-05-17T02:52:03.525Z,10.70
2019-05-17T02:54:33.099Z,12.73
2019-05-17T02:57:05.684Z,9.77
2019-05-17T02:59:35.058Z,11.60
2019-05-17T03:02:04.562Z,10.90
2019-05-17T03:04:33.933Z,9.80
2019-05-17T03:07:04.028Z,11.13
2019-05-17T03:09:33.969Z,10.43
2019-05-17T03:12:03.973Z,11.60
2019-05-17T03:14:33.536Z,9.57
2019-05-17T03:17:03.563Z,11.37
2019-05-17T03:19:33.296Z,10.17
2019-05-17T03:22:07.181Z,9.90
2019-05-17T03:24:33.794Z,10.20
2019-05-17T03:27:03.393Z,11.43
2019-05-17T03:29:33.618Z,10.63
2019-05-17T03:32:08.470Z,10.97
2019-05-17T03:34:37.010Z,11.40
2019-05-17T03:37:07.587Z,11.67
2019-05-17T03:39:37.430Z,12.63
2019-05-17T03:42:06.811Z,12.57
2019-05-17T03:44:36.257Z,11.80
2019-05-17T03:47:06.106Z,12.60
2019-05-17T03:49:39.133Z,11.53
2019-05-17T03:52:06.627Z,11.03
2019-05-17T03:54:36.019Z,11.93
2019-05-17T03:57:05.436Z,11.20
2019-05-17T03:59:34.806Z,12.40
2019-05-17T04:02:04.302Z,12.27
2019-05-17T04:04:33.753Z,12.10
2019-05-17T04:07:03.640Z,13.03
2019-05-17T04:09:37.396Z,12.70
2019-05-17T04:12:04.351Z,12.13
2019-05-17T04:14:33.790Z,11.53
2019-05-17T04:17:03.405Z,11.73
2019-05-17T04:19:33.676Z,12.70
2019-05-17T04:22:04.009Z,12.90
2019-05-17T04:24:33.538Z,14.17
2019-05-17T04:27:03.785Z,12.43
2019-05-17T04:29:33.626Z,12.87
2019-05-17T04:32:03.990Z,12.60
2019-05-17T04:34:34.014Z,13.53
2019-05-17T04:37:04.551Z,13.70
2019-05-17T04:39:34.034Z,13.20
2019-05-17T04:42:04.183Z,12.77
2019-05-17T04:44:33.920Z,14.27
2019-05-17T04:47:04.800Z,11.93
2019-05-17T04:49:34.208Z,13.80
2019-05-17T04:52:03.909Z,13.40
2019-05-17T04:54:33.675Z,13.10
2019-05-17T04:57:03.246Z,14.53
2019-05-17T04:59:33.825Z,14.00
2019-05-17T05:02:03.897Z,14.23
2019-05-17T05:04:37.802Z,14.10
2019-05-17T05:07:04.591Z,14.50
2019-05-17T05:09:33.985Z,16.10
2019-05-17T05:12:06.141Z,14.87
2019-05-17T05:14:34.548Z,15.67
2019-05-17T05:17:04.049Z,14.50
2019-05-17T05:19:33.561Z,16.70
2019-05-17T05:22:04.483Z,15.60
2019-05-17T05:24:34.605Z,15.10
2019-05-17T05:27:06.775Z,15.37
2019-05-17T05:29:36.167Z,14.27
2019-05-17T05:32:05.712Z,13.63
2019-05-17T05:34:35.168Z,15.57
2019-05-17T05:37:04.548Z,17.93
2019-05-17T05:39:34.170Z,14.70
2019-05-17T05:42:07.926Z,15.50
2019-05-17T05:44:34.651Z,15.70
2019-05-17T05:47:06.786Z,14.97
2019-05-17T05:49:36.190Z,15.07
2019-05-17T05:52:05.567Z,15.10
2019-05-17T05:54:34.992Z,14.30
2019-05-17T05:57:04.369Z,13.30
2019-05-17T05:59:35.480Z,12.97
2019-05-17T06:02:04.997Z,12.87
2019-05-17T06:04:34.391Z,12.33
2019-05-17T06:07:03.790Z,12.40
2019-05-17T06:09:33.433Z,11.30
2019-05-17T06:12:03.496Z,12.97
2019-05-17T06:14:32.923Z,11.90
2019-05-17T06:17:03.195Z,11.63
2019-05-17T06:19:32.628Z,10.90
2019-05-17T06:22:02.802Z,11.50
2019-05-17T06:24:32.385Z,12.43
2019-05-17T06:27:02.108Z,10.80
2019-05-17T06:29:32.754Z,10.90
2019-05-17T06:32:02.726Z,12.20
2019-05-17T06:34:32.890Z,11.80
2019-05-17T06:37:03.457Z,10.47
2019-05-17T06:39:33.060Z,10.13
2019-05-17T06:42:02.841Z,11.53
2019-05-17T06:44:32.762Z,10.33
2019-05-17T06:47:03.658Z,10.60
2019-05-17T06:49:33.117Z,10.70
2019-05-17T06:52:02.657Z,8.80
2019-05-17T06:54:33.132Z,8.80
2019-05-17T06:57:04.012Z,8.87
2019-05-17T06:59:33.504Z,8.63
2019-05-17T07:02:02.910Z,10.00
2019-05-17T07:04:32.433Z,7.83
2019-05-17T07:07:20.695Z,8.83
2019-05-17T07:09:50.250Z,7.77
2019-05-17T07:12:20.192Z,7.23
2019-05-17T07:14:50.739Z,8.63
2019-05-17T07:17:20.254Z,9.10
2019-05-17T07:19:50.730Z,7.17
2019-05-17T07:22:21.190Z,8.57
2019-05-17T07:24:50.959Z,8.53
2019-05-17T07:27:20.371Z,9.40
2019-05-17T07:29:49.849Z,7.90
2019-05-17T07:32:19.491Z,7.47
2019-05-17T07:34:50.790Z,8.20
2019-05-17T07:37:20.113Z,8.17
2019-05-17T07:40:00.916Z,7.23
2019-05-17T07:42:20.694Z,7.83
2019-05-17T07:44:50.235Z,8.37
2019-05-17T07:47:20.310Z,7.13
2019-05-17T07:49:49.874Z,6.53
2019-05-17T07:52:20.592Z,7.67
2019-05-17T07:54:50.887Z,6.47
2019-05-17T07:57:20.786Z,6.90
2019-05-17T07:59:50.796Z,6.93
2019-05-17T08:02:20.466Z,6.60
2019-05-17T08:04:50.245Z,5.63
2019-05-17T08:07:19.817Z,6.63
2019-05-17T08:09:50.649Z,6.63
2019-05-17T08:12:20.127Z,6.03
2019-05-17T08:14:50.244Z,5.60
2019-05-17T08:17:20.073Z,5.33
2019-05-17T08:19:49.907Z,4.23
2019-05-17T08:22:20.237Z,4.57
2019-05-17T08:24:49.741Z,4.70
2019-05-17T08:27:20.078Z,5.50
2019-05-17T08:29:50.904Z,4.63
2019-05-17T08:32:20.911Z,4.30
2019-05-17T08:34:51.904Z,3.43
2019-05-17T08:37:21.445Z,4.30
2019-05-17T08:39:50.795Z,3.90
2019-05-17T08:42:20.538Z,4.90
2019-05-17T08:44:50.009Z,4.50
2019-05-17T08:47:20.957Z,4.47
2019-05-17T08:49:50.542Z,4.67
2019-05-17T08:52:20.154Z,4.17
2019-05-17T08:54:50.047Z,3.80
2019-05-17T08:57:20.447Z,3.60
2019-05-17T08:59:49.993Z,3.60
2019-05-17T09:02:19.860Z,3.53
2019-05-17T09:04:49.878Z,4.30
2019-05-17T09:07:20.372Z,3.80
2019-05-17T09:09:50.364Z,3.83
2019-05-17T09:12:20.616Z,4.47
2019-05-17T09:14:50.286Z,3.93
2019-05-17T09:17:19.648Z,3.50
2019-05-17T09:19:50.962Z,3.33
2019-05-17T09:22:20.142Z,4.20
2019-05-17T09:24:50.005Z,3.80
2019-05-17T09:27:19.905Z,3.70
2019-05-17T09:29:49.813Z,3.57
2019-05-17T09:32:20.112Z,4.00
2019-05-17T09:34:50.048Z,3.57
2019-05-17T09:37:22.443Z,4.97
2019-05-17T09:39:50.902Z,4.57
2019-05-17T09:42:20.931Z,4.03
2019-05-17T09:44:50.576Z,3.83
2019-05-17T09:47:20.650Z,3.23
2019-05-17T09:49:50.309Z,4.33
2019-05-17T09:52:20.226Z,3.10
2019-05-17T09:54:50.468Z,4.03
2019-05-17T09:57:20.498Z,3.30
2019-05-17T09:59:49.986Z,3.27
2019-05-17T10:02:20.358Z,3.43
2019-05-17T10:04:50.395Z,3.30
2019-05-17T10:07:20.706Z,3.30
2019-05-17T10:09:50.898Z,3.00
2019-05-17T10:12:20.453Z,3.40
2019-05-17T10:14:49.965Z,3.27
2019-05-17T10:17:21.166Z,3.10
2019-05-17T10:19:50.999Z,2.77
2019-05-17T10:22:20.741Z,3.20
2019-05-17T10:24:50.151Z,3.30
2019-05-17T10:27:20.111Z,3.27
2019-05-17T10:29:50.150Z,2.80
2019-05-17T10:32:20.573Z,2.80
2019-05-17T10:34:50.203Z,3.23
2019-05-17T10:37:20.304Z,3.87
2019-05-17T10:39:50.359Z,2.90
2019-05-17T10:42:20.910Z,2.93
2019-05-17T10:44:51.329Z,2.60
2019-05-17T10:47:21.620Z,3.10
2019-05-17T10:49:51.188Z,2.87
2019-05-17T10:52:20.817Z,2.70
2019-05-17T10:54:50.388Z,2.70
2019-05-17T10:57:19.826Z,3.03
2019-05-17T10:59:49.942Z,2.60
2019-05-17T11:02:19.817Z,2.80
2019-05-17T11:04:50.523Z,2.67
2019-05-17T11:07:20.273Z,2.73
2019-05-17T11:09:50.788Z,2.67
2019-05-17T11:12:20.875Z,2.77
2019-05-17T11:14:56.096Z,3.23
2019-05-17T11:17:21.490Z,2.60
2019-05-17T11:19:50.870Z,2.70
2019-05-17T11:22:20.408Z,3.40
2019-05-17T11:24:49.815Z,2.33
2019-05-17T11:27:19.165Z,2.63
2019-05-17T11:29:48.549Z,2.00
2019-05-17T11:32:18.090Z,2.27
2019-05-17T11:34:47.617Z,2.67
2019-05-17T11:37:17.019Z,2.80
2019-05-17T11:39:46.534Z,2.13
2019-05-17T11:42:15.989Z,2.27
2019-05-17T11:44:45.347Z,3.00
2019-05-17T11:47:14.739Z,2.33
2019-05-17T11:49:44.134Z,2.77
2019-05-17T11:52:13.705Z,2.20
2019-05-17T11:54:43.161Z,2.33
2019-05-17T11:57:12.602Z,2.17
2019-05-17T11:59:41.954Z,2.87
2019-05-17T12:02:11.554Z,2.00
2019-05-17T12:04:40.959Z,2.47
2019-05-17T12:07:10.656Z,2.37
2019-05-17T12:09:40.177Z,2.17
2019-05-17T12:12:09.726Z,2.40
2019-05-17T12:14:39.113Z,2.50
2019-05-17T12:17:08.611Z,2.20
2019-05-17T12:19:38.444Z,1.70
2019-05-17T12:22:07.805Z,1.77
2019-05-17T12:24:37.206Z,2.23
2019-05-17T12:27:06.582Z,2.33
2019-05-17T12:29:35.982Z,1.67
2019-05-17T12:32:06.027Z,2.50
2019-05-17T12:34:35.598Z,1.80
2019-05-17T12:37:07.340Z,2.10
2019-05-17T12:39:36.726Z,1.63
2019-05-17T12:42:06.217Z,1.77
2019-05-17T12:44:37.283Z,2.10
2019-05-17T12:47:06.921Z,1.90
2019-05-17T12:49:36.283Z,1.80
2019-05-17T12:52:05.785Z,1.80
2019-05-17T12:54:35.168Z,1.90
2019-05-17T12:57:05.202Z,1.93
2019-05-17T12:59:34.601Z,1.47
2019-05-17T13:02:04.045Z,1.87
2019-05-17T13:04:33.410Z,1.60
2019-05-17T13:07:02.803Z,1.50
2019-05-17T13:09:32.176Z,1.17
2019-05-17T13:12:01.569Z,1.57
2019-05-17T13:14:32.506Z,1.30
2019-05-17T13:17:01.906Z,1.23
2019-05-17T13:19:31.280Z,1.30
2019-05-17T13:22:00.689Z,1.50
2019-05-17T13:24:30.048Z,1.10
2019-05-17T13:26:59.549Z,1.30
2019-05-17T13:29:28.945Z,1.37
2019-05-17T13:31:58.419Z,1.30
2019-05-17T13:34:27.825Z,1.30
2019-05-17T13:36:57.262Z,2.10
2019-05-17T13:39:26.680Z,1.90
2019-05-17T13:41:56.046Z,1.60
2019-05-17T13:44:25.546Z,1.43
2019-05-17T13:46:54.940Z,1.50
2019-05-17T13:49:24.333Z,1.67
2019-05-17T13:51:53.702Z,1.60
2019-05-17T13:54:23.103Z,2.10
2019-05-17T13:56:52.469Z,2.13
2019-05-17T13:59:21.869Z,1.90
2019-05-17T14:01:51.240Z,1.90
2019-05-17T14:04:20.607Z,1.80
2019-05-17T14:06:50.033Z,1.50
2019-05-17T14:09:19.393Z,1.37
2019-05-17T14:11:48.831Z,1.93
2019-05-17T14:14:18.253Z,1.80
2019-05-17T14:16:47.630Z,1.93
2019-05-17T14:19:16.990Z,1.53
2019-05-17T14:21:46.572Z,1.77
2019-05-17T14:24:15.945Z,1.77
2019-05-17T14:26:45.340Z,1.50
2019-05-17T14:29:14.822Z,1.60
2019-05-17T14:31:44.282Z,1.83
2019-05-17T14:34:13.742Z,1.57
2019-05-17T14:36:43.181Z,1.73
2019-05-17T14:39:12.580Z,1.93
2019-05-17T14:41:42.020Z,1.40
2019-05-17T14:44:11.427Z,1.90
2019-05-17T14:46:40.820Z,1.13
2019-05-17T14:49:10.214Z,1.70
2019-05-17T14:51:39.571Z,1.80
2019-05-17T14:54:08.964Z,1.40
2019-05-17T14:56:38.325Z,1.60
2019-05-17T14:59:07.728Z,2.00
2019-05-17T15:01:37.197Z,1.67
2019-05-17T15:04:06.598Z,2.03
2019-05-17T15:06:35.972Z,2.00
2019-05-17T15:09:06.685Z,1.87
2019-05-17T15:11:36.080Z,1.57
2019-05-17T15:14:05.962Z,1.77
2019-05-17T15:16:35.408Z,2.10
2019-05-17T15:19:04.873Z,1.93
2019-05-17T15:21:34.255Z,2.57
2019-05-17T15:24:03.637Z,2.17
2019-05-17T15:26:35.668Z,1.90
2019-05-17T15:29:04.381Z,2.40
2019-05-17T15:31:33.827Z,2.43
2019-05-17T15:34:03.218Z,2.67
2019-05-17T15:36:32.660Z,2.37
2019-05-17T15:39:02.193Z,2.50
2019-05-17T15:41:31.590Z,2.10
2019-05-17T15:44:01.072Z,2.40
2019-05-17T15:46:30.474Z,2.10
2019-05-17T15:48:59.845Z,2.40
2019-05-17T15:51:29.214Z,2.60
2019-05-17T15:53:58.707Z,2.53
2019-05-17T15:56:28.095Z,2.47
2019-05-17T15:58:57.486Z,2.53
2019-05-17T16:01:26.868Z,1.90
2019-05-17T16:03:56.261Z,2.17
2019-05-17T16:06:25.632Z,2.17
2019-05-17T16:08:55.033Z,2.20
2019-05-17T16:11:24.500Z,2.13
2019-05-17T16:13:53.999Z,2.10
2019-05-17T16:16:23.462Z,2.50
2019-05-17T16:18:52.882Z,2.60
2019-05-17T16:21:22.359Z,2.10
2019-05-17T16:23:53.408Z,2.50
2019-05-17T16:26:22.864Z,2.23
2019-05-17T16:28:52.227Z,2.03
2019-05-17T16:31:21.615Z,2.27
2019-05-17T16:33:51.149Z,2.70
2019-05-17T16:36:20.638Z,2.90
2019-05-17T16:38:50.061Z,3.00
2019-05-17T16:41:19.509Z,2.27
2019-05-17T16:43:48.883Z,3.00
2019-05-17T16:46:18.270Z,2.73
2019-05-17T16:48:47.664Z,2.93
2019-05-17T16:51:17.101Z,2.67
2019-05-17T16:53:46.547Z,2.90
2019-05-17T16:56:15.933Z,2.90
2019-05-17T16:58:45.317Z,2.47
2019-05-17T17:01:14.703Z,3.10
2019-05-17T17:03:44.885Z,2.90
2019-05-17T17:06:14.360Z,2.43
2019-05-17T17:08:44.309Z,2.20
2019-05-17T17:11:13.794Z,2.30
2019-05-17T17:13:43.208Z,3.37
2019-05-17T17:16:12.568Z,3.13
2019-05-17T17:18:41.965Z,3.00
2019-05-17T17:21:11.601Z,3.10
2019-05-17T17:23:41.111Z,2.70
2019-05-17T17:26:10.483Z,2.20
2019-05-17T17:28:39.971Z,3.10
2019-05-17T17:31:13.798Z,2.93
2019-05-17T17:33:43.158Z,2.23
2019-05-17T17:36:12.623Z,2.50
2019-05-17T17:38:42.000Z,2.20
2019-05-17T17:41:11.389Z,2.20
2019-05-17T17:43:40.760Z,2.60
2019-05-17T17:46:10.155Z,2.47
2019-05-17T17:48:39.542Z,2.97
2019-05-17T17:51:09.124Z,2.70
2019-05-17T17:53:38.507Z,2.40
2019-05-17T17:56:07.911Z,2.60
2019-05-17T17:58:37.380Z,2.77
2019-05-17T18:01:06.872Z,2.50
2019-05-17T18:03:36.234Z,2.33
2019-05-17T18:06:05.765Z,2.33
2019-05-17T18:08:35.151Z,2.13
2019-05-17T18:11:04.542Z,2.97
2019-05-17T18:13:33.951Z,2.40
2019-05-17T18:16:03.330Z,2.20
2019-05-17T18:18:32.719Z,2.70
2019-05-17T18:21:02.218Z,2.33
2019-05-17T18:23:31.667Z,2.23
2019-05-17T18:26:01.065Z,2.63
2019-05-17T18:28:30.516Z,2.47
2019-05-17T18:30:59.977Z,2.40
2019-05-17T18:33:29.486Z,2.50
2019-05-17T18:35:58.857Z,2.30
2019-05-17T18:38:30.850Z,2.60
2019-05-17T18:41:00.263Z,1.93
2019-05-17T18:43:29.646Z,1.90
2019-05-17T18:45:59.064Z,2.23
2019-05-17T18:48:28.434Z,1.93
2019-05-17T18:50:57.833Z,2.10
2019-05-17T18:53:27.564Z,2.13
2019-05-17T18:55:56.993Z,2.20
2019-05-17T18:58:26.360Z,2.37
2019-05-17T19:00:55.873Z,1.53
2019-05-17T19:03:25.259Z,2.17
2019-05-17T19:05:54.757Z,2.30
2019-05-17T19:08:24.224Z,2.20
2019-05-17T19:10:53.744Z,1.80
2019-05-17T19:13:23.115Z,2.40
2019-05-17T19:15:52.479Z,2.50
2019-05-17T19:18:21.866Z,1.90
2019-05-17T19:20:51.279Z,1.97
2019-05-17T19:23:20.639Z,2.47
2019-05-17T19:25:50.250Z,3.17
2019-05-17T19:28:19.901Z,2.70
2019-05-17T19:30:50.289Z,2.67
2019-05-17T19:33:19.796Z,2.20
2019-05-17T19:35:49.177Z,2.40
2019-05-17T19:38:18.566Z,2.20
2019-05-17T19:40:47.975Z,2.23
2019-05-17T19:43:17.387Z,2.33
2019-05-17T19:45:46.756Z,2.73
2019-05-17T19:48:19.674Z,2.50
2019-05-17T19:50:47.949Z,2.30
2019-05-17T19:53:17.340Z,2.90
2019-05-17T19:55:46.854Z,2.60
2019-05-17T19:58:16.250Z,2.67
2019-05-17T20:00:45.902Z,2.97
2019-05-17T20:03:15.282Z,2.60
2019-05-17T20:05:44.688Z,2.47
2019-05-17T20:08:14.111Z,2.80
2019-05-17T20:10:43.523Z,2.30
2019-05-17T20:13:13.803Z,2.53
2019-05-17T20:15:43.223Z,2.40
2019-05-17T20:18:15.140Z,2.97
2019-05-17T20:20:44.806Z,3.10
2019-05-17T20:23:14.235Z,2.07
2019-05-17T20:25:44.412Z,2.97
2019-05-17T20:28:16.412Z,2.70
2019-05-17T20:30:45.797Z,2.40
2019-05-17T20:33:15.232Z,2.07
2019-05-17T20:35:44.607Z,2.40
2019-05-17T20:38:14.027Z,2.57
2019-05-17T20:40:43.542Z,2.20
2019-05-17T20:43:13.099Z,2.83
2019-05-17T20:45:42.682Z,2.80
2019-05-17T20:48:12.073Z,2.40
2019-05-17T20:50:41.586Z,2.63
2019-05-17T20:53:18.734Z,2.33
2019-05-17T20:55:42.682Z,2.40
2019-05-17T20:58:12.169Z,2.60
2019-05-17T21:00:41.757Z,2.77
2019-05-17T21:03:13.829Z,2.80
2019-05-17T21:05:42.394Z,2.60
2019-05-17T21:08:11.780Z,2.67
2019-05-17T21:10:41.200Z,3.00
2019-05-17T21:13:10.589Z,3.07
2019-05-17T21:15:47.358Z,2.97
2019-05-17T21:18:11.083Z,3.47
2019-05-17T21:20:40.517Z,2.90
2019-05-17T21:23:09.922Z,3.20
2019-05-17T21:25:39.320Z,2.80
2019-05-17T21:28:08.720Z,2.60
2019-05-17T21:30:38.251Z,2.73
2019-05-17T21:33:07.624Z,2.67
2019-05-17T21:35:37.005Z,2.60
2019-05-17T21:38:06.414Z,3.23
2019-05-17T21:40:35.797Z,3.33
2019-05-17T21:43:05.240Z,4.00
2019-05-17T21:45:34.670Z,3.23
2019-05-17T21:48:04.070Z,3.60
2019-05-17T21:50:33.453Z,3.03
2019-05-17T21:53:02.867Z,2.97
2019-05-17T21:55:32.332Z,3.30
2019-05-17T21:58:01.865Z,3.37
2019-05-17T22:01:06.490Z,3.20
2019-05-17T22:03:36.036Z,3.13
2019-05-17T22:06:05.426Z,5.37
2019-05-17T22:08:34.907Z,3.53
2019-05-17T22:11:04.312Z,5.60
2019-05-17T22:13:33.693Z,3.20
2019-05-17T22:16:18.237Z,4.10
2019-05-17T22:18:34.250Z,2.67
2019-05-17T22:21:03.678Z,3.27
2019-05-17T22:23:33.097Z,3.30
2019-05-17T22:26:02.488Z,3.40
2019-05-17T22:28:31.879Z,3.27
2019-05-17T22:31:01.270Z,3.30
2019-05-17T22:33:30.852Z,2.60
2019-05-17T22:36:00.254Z,4.27
2019-05-17T22:38:29.687Z,4.13
2019-05-17T22:40:59.108Z,3.87
2019-05-17T22:43:28.592Z,5.50
2019-05-17T22:45:58.006Z,4.20
2019-05-17T22:48:27.385Z,5.00
2019-05-17T22:50:56.766Z,3.50
2019-05-17T22:53:26.232Z,4.20
2019-05-17T22:55:55.620Z,6.63
2019-05-17T22:58:25.029Z,4.63
2019-05-17T23:00:54.420Z,3.13
2019-05-17T23:03:23.846Z,6.23
2019-05-17T23:05:53.236Z,12.67
2019-05-17T23:08:22.623Z,5.60
2019-05-17T23:10:52.030Z,13.67
2019-05-17T23:13:21.405Z,26.50
2019-05-17T23:16:04.745Z,7.30
2019-05-17T23:18:34.843Z,10.40
2019-05-17T23:21:04.602Z,18.50
2019-05-17T23:23:33.989Z,15.20
2019-05-17T23:26:03.403Z,21.93
2019-05-17T23:28:32.812Z,17.90
2019-05-17T23:31:02.220Z,15.87
2019-05-17T23:33:31.655Z,32.83
2019-05-17T23:36:01.039Z,71.30
2019-05-17T23:38:30.442Z,25.03
2019-05-17T23:40:59.840Z,27.40
2019-05-17T23:43:29.367Z,25.30
2019-05-17T23:45:58.748Z,17.07
2019-05-17T23:48:28.153Z,14.70
2019-05-17T23:50:58.042Z,13.27
2019-05-17T23:53:27.449Z,12.70
2019-05-17T23:55:56.834Z,19.67
2019-05-17T23:58:26.269Z,27.00
